sensor_id;sensor_type;location;lat;lon;timestamp;temperature;humidity
70676;DHT22;59069;52.242;20.900;2023-04-08T00:01:52;6.41;71.97
70676;DHT22;59069;52.242;20.900;2023-04-08T00:04:18;6.38;71.94
70676;DHT22;59069;52.242;20.900;2023-04-08T00:06:43;6.40;71.81
70676;DHT22;59069;52.242;20.900;2023-04-08T00:09:08;6.37;71.81
70676;DHT22;59069;52.242;20.900;2023-04-08T00:11:34;6.41;71.95
70676;DHT22;59069;52.242;20.900;2023-04-08T00:14:02;6.38;71.92
70676;DHT22;59069;52.242;20.900;2023-04-08T00:16:28;6.40;71.86
70676;DHT22;59069;52.242;20.900;2023-04-08T00:18:53;6.41;71.84
70676;DHT22;59069;52.242;20.900;2023-04-08T00:21:19;6.38;72.03
70676;DHT22;59069;52.242;20.900;2023-04-08T00:23:46;6.38;72.12
70676;DHT22;59069;52.242;20.900;2023-04-08T00:26:11;6.37;72.13
70676;DHT22;59069;52.242;20.900;2023-04-08T00:28:37;6.31;71.91
70676;DHT22;59069;52.242;20.900;2023-04-08T00:31:02;6.33;71.89
70676;DHT22;59069;52.242;20.900;2023-04-08T00:33:28;6.33;72.00
70676;DHT22;59069;52.242;20.900;2023-04-08T00:35:53;6.33;72.13
70676;DHT22;59069;52.242;20.900;2023-04-08T00:38:19;6.34;72.22
70676;DHT22;59069;52.242;20.900;2023-04-08T00:40:45;6.33;72.28
70676;DHT22;59069;52.242;20.900;2023-04-08T00:43:11;6.30;72.23
70676;DHT22;59069;52.242;20.900;2023-04-08T00:45:37;6.30;72.16
70676;DHT22;59069;52.242;20.900;2023-04-08T00:48:03;6.30;72.10
70676;DHT22;59069;52.242;20.900;2023-04-08T00:50:29;6.30;72.12
70676;DHT22;59069;52.242;20.900;2023-04-08T00:52:55;6.27;72.22
70676;DHT22;59069;52.242;20.900;2023-04-08T00:55:20;6.27;72.29
70676;DHT22;59069;52.242;20.900;2023-04-08T00:57:46;6.27;72.27
70676;DHT22;59069;52.242;20.900;2023-04-08T01:00:13;6.31;72.23
70676;DHT22;59069;52.242;20.900;2023-04-08T01:05:39;6.34;71.93
70676;DHT22;59069;52.242;20.900;2023-04-08T01:08:10;6.33;71.84
70676;DHT22;59069;52.242;20.900;2023-04-08T01:10:38;6.33;71.77
70676;DHT22;59069;52.242;20.900;2023-04-08T01:13:08;6.29;71.92
70676;DHT22;59069;52.242;20.900;2023-04-08T01:15:37;6.27;72.05
70676;DHT22;59069;52.242;20.900;2023-04-08T01:18:10;6.26;72.16
70676;DHT22;59069;52.242;20.900;2023-04-08T01:20:37;6.27;72.13
70676;DHT22;59069;52.242;20.900;2023-04-08T01:23:32;6.23;71.95
70676;DHT22;59069;52.242;20.900;2023-04-08T01:26:01;6.19;71.94
70676;DHT22;59069;52.242;20.900;2023-04-08T01:28:28;6.13;71.83
70676;DHT22;59069;52.242;20.900;2023-04-08T01:30:56;6.12;71.83
70676;DHT22;59069;52.242;20.900;2023-04-08T01:33:23;6.06;71.77
70676;DHT22;59069;52.242;20.900;2023-04-08T01:35:50;6.00;71.71
70676;DHT22;59069;52.242;20.900;2023-04-08T01:38:19;5.96;71.63
70676;DHT22;59069;52.242;20.900;2023-04-08T01:40:45;5.95;71.68
70676;DHT22;59069;52.242;20.900;2023-04-08T01:43:15;5.88;71.90
70676;DHT22;59069;52.242;20.900;2023-04-08T01:45:43;5.82;72.02
70676;DHT22;59069;52.242;20.900;2023-04-08T01:48:11;5.76;72.29
70676;DHT22;59069;52.242;20.900;2023-04-08T01:50:40;5.68;72.47
70676;DHT22;59069;52.242;20.900;2023-04-08T01:53:08;5.65;72.70
70676;DHT22;59069;52.242;20.900;2023-04-08T01:55:34;5.59;72.99
70676;DHT22;59069;52.242;20.900;2023-04-08T01:58:01;5.55;73.21
70676;DHT22;59069;52.242;20.900;2023-04-08T02:00:30;5.54;73.22
70676;DHT22;59069;52.242;20.900;2023-04-08T02:02:57;5.48;73.33
70676;DHT22;59069;52.242;20.900;2023-04-08T02:05:23;5.44;73.44
70676;DHT22;59069;52.242;20.900;2023-04-08T02:07:49;5.41;73.65
70676;DHT22;59069;52.242;20.900;2023-04-08T02:10:14;5.38;73.69
70676;DHT22;59069;52.242;20.900;2023-04-08T02:12:41;5.32;73.74
70676;DHT22;59069;52.242;20.900;2023-04-08T02:15:14;5.30;73.86
70676;DHT22;59069;52.242;20.900;2023-04-08T02:17:45;5.26;73.88
70676;DHT22;59069;52.242;20.900;2023-04-08T02:20:18;5.23;74.02
70676;DHT22;59069;52.242;20.900;2023-04-08T02:23:18;5.20;74.16
70676;DHT22;59069;52.242;20.900;2023-04-08T02:25:44;5.16;74.17
70676;DHT22;59069;52.242;20.900;2023-04-08T02:28:11;5.11;74.26
70676;DHT22;59069;52.242;20.900;2023-04-08T02:30:41;5.08;74.32
70676;DHT22;59069;52.242;20.900;2023-04-08T02:33:07;5.06;74.41
70676;DHT22;59069;52.242;20.900;2023-04-08T02:35:34;5.03;74.47
70676;DHT22;59069;52.242;20.900;2023-04-08T02:38:00;4.98;74.61
70676;DHT22;59069;52.242;20.900;2023-04-08T02:40:32;4.97;74.63
70676;DHT22;59069;52.242;20.900;2023-04-08T02:42:59;4.91;74.79
70676;DHT22;59069;52.242;20.900;2023-04-08T02:45:38;4.90;74.96
70676;DHT22;59069;52.242;20.900;2023-04-08T02:48:05;4.83;75.15
70676;DHT22;59069;52.242;20.900;2023-04-08T02:50:30;4.79;75.42
70676;DHT22;59069;52.242;20.900;2023-04-08T02:52:56;4.76;75.59
70676;DHT22;59069;52.242;20.900;2023-04-08T02:55:21;4.72;75.66
70676;DHT22;59069;52.242;20.900;2023-04-08T02:57:47;4.73;75.68
70676;DHT22;59069;52.242;20.900;2023-04-08T03:00:13;4.70;75.62
70676;DHT22;59069;52.242;20.900;2023-04-08T03:02:39;4.69;75.65
70676;DHT22;59069;52.242;20.900;2023-04-08T03:05:05;4.67;75.75
70676;DHT22;59069;52.242;20.900;2023-04-08T03:07:32;4.65;75.89
70676;DHT22;59069;52.242;20.900;2023-04-08T03:09:57;4.62;75.95
70676;DHT22;59069;52.242;20.900;2023-04-08T03:12:23;4.60;76.04
70676;DHT22;59069;52.242;20.900;2023-04-08T03:14:49;4.56;76.21
70676;DHT22;59069;52.242;20.900;2023-04-08T03:17:15;4.53;76.29
70676;DHT22;59069;52.242;20.900;2023-04-08T03:19:40;4.49;76.33
70676;DHT22;59069;52.242;20.900;2023-04-08T03:22:06;4.46;76.42
70676;DHT22;59069;52.242;20.900;2023-04-08T03:24:34;4.45;76.64
70676;DHT22;59069;52.242;20.900;2023-04-08T03:27:00;4.42;76.58
70676;DHT22;59069;52.242;20.900;2023-04-08T03:29:25;4.39;76.70
70676;DHT22;59069;52.242;20.900;2023-04-08T03:31:51;4.39;76.72
70676;DHT22;59069;52.242;20.900;2023-04-08T03:34:17;4.36;76.84
70676;DHT22;59069;52.242;20.900;2023-04-08T03:36:42;4.36;77.04
70676;DHT22;59069;52.242;20.900;2023-04-08T03:39:08;4.32;77.14
70676;DHT22;59069;52.242;20.900;2023-04-08T03:41:34;4.29;77.24
70676;DHT22;59069;52.242;20.900;2023-04-08T03:44:00;4.28;77.45
70676;DHT22;59069;52.242;20.900;2023-04-08T03:46:25;4.31;77.61
70676;DHT22;59069;52.242;20.900;2023-04-08T03:48:51;4.29;77.72
70676;DHT22;59069;52.242;20.900;2023-04-08T03:51:16;4.31;77.80
70676;DHT22;59069;52.242;20.900;2023-04-08T03:53:42;4.28;77.94
70676;DHT22;59069;52.242;20.900;2023-04-08T03:56:07;4.25;78.00
70676;DHT22;59069;52.242;20.900;2023-04-08T03:58:32;4.21;78.15
70676;DHT22;59069;52.242;20.900;2023-04-08T04:00:58;4.24;78.23
70676;DHT22;59069;52.242;20.900;2023-04-08T04:03:23;4.19;78.23
70676;DHT22;59069;52.242;20.900;2023-04-08T04:05:49;4.21;78.38
70676;DHT22;59069;52.242;20.900;2023-04-08T04:08:15;4.18;78.46
70676;DHT22;59069;52.242;20.900;2023-04-08T04:10:40;4.18;78.53
70676;DHT22;59069;52.242;20.900;2023-04-08T04:13:06;4.19;78.55
70676;DHT22;59069;52.242;20.900;2023-04-08T04:15:31;4.17;78.63
70676;DHT22;59069;52.242;20.900;2023-04-08T04:17:57;4.18;78.80
70676;DHT22;59069;52.242;20.900;2023-04-08T04:20:22;4.18;78.87
70676;DHT22;59069;52.242;20.900;2023-04-08T04:22:50;4.15;79.08
70676;DHT22;59069;52.242;20.900;2023-04-08T04:25:16;4.18;79.12
70676;DHT22;59069;52.242;20.900;2023-04-08T04:27:41;4.19;79.10
70676;DHT22;59069;52.242;20.900;2023-04-08T04:30:07;4.17;79.16
70676;DHT22;59069;52.242;20.900;2023-04-08T04:32:33;4.17;79.32
70676;DHT22;59069;52.242;20.900;2023-04-08T04:34:59;4.22;79.45
70676;DHT22;59069;52.242;20.900;2023-04-08T04:37:25;4.25;79.49
70676;DHT22;59069;52.242;20.900;2023-04-08T04:39:50;4.26;79.60
70676;DHT22;59069;52.242;20.900;2023-04-08T04:42:16;4.28;79.69
70676;DHT22;59069;52.242;20.900;2023-04-08T04:44:41;4.31;79.74
70676;DHT22;59069;52.242;20.900;2023-04-08T04:47:07;4.38;79.67
70676;DHT22;59069;52.242;20.900;2023-04-08T04:49:32;4.38;79.70
70676;DHT22;59069;52.242;20.900;2023-04-08T04:51:58;4.44;79.74
70676;DHT22;59069;52.242;20.900;2023-04-08T04:54:23;4.50;79.86
70676;DHT22;59069;52.242;20.900;2023-04-08T04:56:49;4.57;79.87
70676;DHT22;59069;52.242;20.900;2023-04-08T04:59:14;4.66;79.73
70676;DHT22;59069;52.242;20.900;2023-04-08T05:01:40;4.75;79.57
70676;DHT22;59069;52.242;20.900;2023-04-08T05:04:06;4.80;79.47
70676;DHT22;59069;52.242;20.900;2023-04-08T05:06:32;4.91;79.40
70676;DHT22;59069;52.242;20.900;2023-04-08T05:08:57;4.96;79.11
70676;DHT22;59069;52.242;20.900;2023-04-08T05:11:23;5.03;79.00
70676;DHT22;59069;52.242;20.900;2023-04-08T05:13:48;5.04;78.86
70676;DHT22;59069;52.242;20.900;2023-04-08T05:16:14;5.11;78.73
70676;DHT22;59069;52.242;20.900;2023-04-08T05:18:39;5.14;78.61
70676;DHT22;59069;52.242;20.900;2023-04-08T05:21:05;5.16;78.33
70676;DHT22;59069;52.242;20.900;2023-04-08T05:23:30;5.20;78.25
70676;DHT22;59069;52.242;20.900;2023-04-08T05:25:56;5.24;78.14
70676;DHT22;59069;52.242;20.900;2023-04-08T05:28:21;5.30;78.03
70676;DHT22;59069;52.242;20.900;2023-04-08T05:30:50;5.37;77.79
70676;DHT22;59069;52.242;20.900;2023-04-08T05:33:16;5.42;77.72
70676;DHT22;59069;52.242;20.900;2023-04-08T05:35:42;5.51;77.60
70676;DHT22;59069;52.242;20.900;2023-04-08T05:38:07;5.59;77.51
70676;DHT22;59069;52.242;20.900;2023-04-08T05:40:33;5.68;77.31
70676;DHT22;59069;52.242;20.900;2023-04-08T05:42:58;5.76;77.15
70676;DHT22;59069;52.242;20.900;2023-04-08T05:45:23;5.85;76.89
70676;DHT22;59069;52.242;20.900;2023-04-08T05:47:49;5.96;76.53
70676;DHT22;59069;52.242;20.900;2023-04-08T05:50:15;6.03;76.27
70676;DHT22;59069;52.242;20.900;2023-04-08T05:52:44;6.13;75.83
70676;DHT22;59069;52.242;20.900;2023-04-08T05:55:11;6.23;75.70
70676;DHT22;59069;52.242;20.900;2023-04-08T05:57:36;6.36;75.42
70676;DHT22;59069;52.242;20.900;2023-04-08T06:00:04;6.51;74.97
70676;DHT22;59069;52.242;20.900;2023-04-08T06:02:30;6.63;74.49
70676;DHT22;59069;52.242;20.900;2023-04-08T06:04:56;6.75;74.09
70676;DHT22;59069;52.242;20.900;2023-04-08T06:07:21;6.91;73.98
70676;DHT22;59069;52.242;20.900;2023-04-08T06:09:46;7.01;73.37
70676;DHT22;59069;52.242;20.900;2023-04-08T06:12:12;7.19;73.15
70676;DHT22;59069;52.242;20.900;2023-04-08T06:14:37;7.37;72.92
70676;DHT22;59069;52.242;20.900;2023-04-08T06:17:03;7.52;72.17
70676;DHT22;59069;52.242;20.900;2023-04-08T06:19:28;7.69;71.46
70676;DHT22;59069;52.242;20.900;2023-04-08T06:21:54;7.77;70.92
70676;DHT22;59069;52.242;20.900;2023-04-08T06:24:24;7.90;70.46
70676;DHT22;59069;52.242;20.900;2023-04-08T06:26:50;8.02;70.00
70676;DHT22;59069;52.242;20.900;2023-04-08T06:29:17;8.18;69.47
70676;DHT22;59069;52.242;20.900;2023-04-08T06:31:42;8.32;68.57
70676;DHT22;59069;52.242;20.900;2023-04-08T06:34:08;8.39;68.14
70676;DHT22;59069;52.242;20.900;2023-04-08T06:36:33;8.52;67.77
70676;DHT22;59069;52.242;20.900;2023-04-08T06:38:58;8.65;67.34
70676;DHT22;59069;52.242;20.900;2023-04-08T06:41:24;8.79;66.82
70676;DHT22;59069;52.242;20.900;2023-04-08T06:43:49;8.87;66.42
70676;DHT22;59069;52.242;20.900;2023-04-08T06:46:15;9.04;66.58
70676;DHT22;59069;52.242;20.900;2023-04-08T06:48:41;9.21;65.32
70676;DHT22;59069;52.242;20.900;2023-04-08T06:51:06;9.37;64.56
70676;DHT22;59069;52.242;20.900;2023-04-08T06:53:32;9.55;64.36
70676;DHT22;59069;52.242;20.900;2023-04-08T06:55:58;9.68;63.81
70676;DHT22;59069;52.242;20.900;2023-04-08T06:58:23;9.85;63.51
70676;DHT22;59069;52.242;20.900;2023-04-08T07:00:49;9.99;63.14
70676;DHT22;59069;52.242;20.900;2023-04-08T07:03:14;10.19;62.03
70676;DHT22;59069;52.242;20.900;2023-04-08T07:05:40;10.41;61.86
70676;DHT22;59069;52.242;20.900;2023-04-08T07:08:06;10.67;60.64
70676;DHT22;59069;52.242;20.900;2023-04-08T07:10:33;10.91;60.34
70676;DHT22;59069;52.242;20.900;2023-04-08T07:12:59;11.12;58.80
70676;DHT22;59069;52.242;20.900;2023-04-08T07:15:25;11.29;58.09
70676;DHT22;59069;52.242;20.900;2023-04-08T07:17:50;11.47;57.26
70676;DHT22;59069;52.242;20.900;2023-04-08T07:20:16;11.70;56.49
70676;DHT22;59069;52.242;20.900;2023-04-08T07:22:42;11.90;55.20
70676;DHT22;59069;52.242;20.900;2023-04-08T07:25:08;12.08;55.22
70676;DHT22;59069;52.242;20.900;2023-04-08T07:27:33;12.31;54.15
70676;DHT22;59069;52.242;20.900;2023-04-08T07:29:59;12.42;53.01
70676;DHT22;59069;52.242;20.900;2023-04-08T07:32:25;12.56;52.24
70676;DHT22;59069;52.242;20.900;2023-04-08T07:34:51;12.69;51.35
70676;DHT22;59069;52.242;20.900;2023-04-08T07:37:17;12.76;51.38
70676;DHT22;59069;52.242;20.900;2023-04-08T07:39:42;12.95;51.54
70676;DHT22;59069;52.242;20.900;2023-04-08T07:42:08;13.09;50.53
70676;DHT22;59069;52.242;20.900;2023-04-08T07:44:33;13.22;50.31
70676;DHT22;59069;52.242;20.900;2023-04-08T07:46:59;13.33;49.75
70676;DHT22;59069;52.242;20.900;2023-04-08T07:49:25;13.47;49.27
70676;DHT22;59069;52.242;20.900;2023-04-08T07:51:50;13.61;48.47
70676;DHT22;59069;52.242;20.900;2023-04-08T07:54:16;13.79;48.66
70676;DHT22;59069;52.242;20.900;2023-04-08T07:56:44;14.08;47.65
70676;DHT22;59069;52.242;20.900;2023-04-08T07:59:10;14.40;47.08
70676;DHT22;59069;52.242;20.900;2023-04-08T08:01:36;14.65;46.20
70676;DHT22;59069;52.242;20.900;2023-04-08T08:04:02;14.86;45.35
70676;DHT22;59069;52.242;20.900;2023-04-08T08:06:28;15.17;45.21
70676;DHT22;59069;52.242;20.900;2023-04-08T08:08:54;15.58;46.39
70676;DHT22;59069;52.242;20.900;2023-04-08T08:11:19;16.21;48.07
70676;DHT22;59069;52.242;20.900;2023-04-08T08:13:48;17.02;47.59
70676;DHT22;59069;52.242;20.900;2023-04-08T08:16:13;17.97;43.91
70676;DHT22;59069;52.242;20.900;2023-04-08T08:18:39;19.10;42.55
70676;DHT22;59069;52.242;20.900;2023-04-08T08:21:06;20.15;39.70
70676;DHT22;59069;52.242;20.900;2023-04-08T08:23:31;21.21;35.69
70676;DHT22;59069;52.242;20.900;2023-04-08T08:26:01;22.16;34.12
70676;DHT22;59069;52.242;20.900;2023-04-08T08:28:27;23.04;31.74
70676;DHT22;59069;52.242;20.900;2023-04-08T08:30:53;23.87;29.71
70676;DHT22;59069;52.242;20.900;2023-04-08T08:33:19;24.32;28.59
70676;DHT22;59069;52.242;20.900;2023-04-08T08:35:44;24.99;28.30
70676;DHT22;59069;52.242;20.900;2023-04-08T08:38:10;25.88;27.28
70676;DHT22;59069;52.242;20.900;2023-04-08T08:40:38;26.46;25.52
70676;DHT22;59069;52.242;20.900;2023-04-08T08:43:03;26.84;24.43
70676;DHT22;59069;52.242;20.900;2023-04-08T08:45:29;26.96;24.12
70676;DHT22;59069;52.242;20.900;2023-04-08T08:47:55;27.08;24.18
70676;DHT22;59069;52.242;20.900;2023-04-08T08:50:22;27.40;23.79
70676;DHT22;59069;52.242;20.900;2023-04-08T08:52:51;27.79;22.59
70676;DHT22;59069;52.242;20.900;2023-04-08T08:55:21;28.32;22.70
70676;DHT22;59069;52.242;20.900;2023-04-08T08:57:50;28.84;22.38
70676;DHT22;59069;52.242;20.900;2023-04-08T09:00:16;29.00;20.89
70676;DHT22;59069;52.242;20.900;2023-04-08T09:02:42;29.00;21.39
70676;DHT22;59069;52.242;20.900;2023-04-08T09:05:07;28.86;19.32
70676;DHT22;59069;52.242;20.900;2023-04-08T09:07:36;28.59;21.41
70676;DHT22;59069;52.242;20.900;2023-04-08T09:10:04;28.57;22.36
70676;DHT22;59069;52.242;20.900;2023-04-08T09:12:30;28.87;21.44
70676;DHT22;59069;52.242;20.900;2023-04-08T09:15:03;28.73;20.23
70676;DHT22;59069;52.242;20.900;2023-04-08T09:17:34;28.75;22.72
70676;DHT22;59069;52.242;20.900;2023-04-08T09:20:09;29.07;20.04
70676;DHT22;59069;52.242;20.900;2023-04-08T09:22:59;28.94;20.33
70676;DHT22;59069;52.242;20.900;2023-04-08T09:25:29;29.16;21.69
70676;DHT22;59069;52.242;20.900;2023-04-08T09:27:56;29.58;21.13
70676;DHT22;59069;52.242;20.900;2023-04-08T09:30:23;29.89;19.18
70676;DHT22;59069;52.242;20.900;2023-04-08T09:32:52;29.87;18.25
70676;DHT22;59069;52.242;20.900;2023-04-08T09:35:18;29.82;20.66
70676;DHT22;59069;52.242;20.900;2023-04-08T09:37:45;29.82;19.64
70676;DHT22;59069;52.242;20.900;2023-04-08T09:40:11;29.82;20.48
70676;DHT22;59069;52.242;20.900;2023-04-08T09:42:39;29.94;20.38
70676;DHT22;59069;52.242;20.900;2023-04-08T09:45:06;29.76;19.29
70676;DHT22;59069;52.242;20.900;2023-04-08T09:47:38;28.90;19.34
70676;DHT22;59069;52.242;20.900;2023-04-08T09:50:07;28.57;21.19
70676;DHT22;59069;52.242;20.900;2023-04-08T09:52:43;28.65;20.38
70676;DHT22;59069;52.242;20.900;2023-04-08T09:55:11;28.90;20.61
70676;DHT22;59069;52.242;20.900;2023-04-08T09:57:49;29.02;19.23
70676;DHT22;59069;52.242;20.900;2023-04-08T10:00:16;28.53;19.61
70676;DHT22;59069;52.242;20.900;2023-04-08T10:02:55;28.35;20.70
70676;DHT22;59069;52.242;20.900;2023-04-08T10:05:23;27.89;20.70
70676;DHT22;59069;52.242;20.900;2023-04-08T10:07:49;26.94;19.41
70676;DHT22;59069;52.242;20.900;2023-04-08T10:10:15;25.81;22.65
70676;DHT22;59069;52.242;20.900;2023-04-08T10:12:41;25.00;22.34
70676;DHT22;59069;52.242;20.900;2023-04-08T10:15:33;24.71;24.08
70676;DHT22;59069;52.242;20.900;2023-04-08T10:23:10;24.51;25.14
70676;DHT22;59069;52.242;20.900;2023-04-08T10:25:47;24.45;25.88
70676;DHT22;59069;52.242;20.900;2023-04-08T10:30:45;24.18;23.85
70676;DHT22;59069;52.242;20.900;2023-04-08T10:38:23;23.60;26.31
70676;DHT22;59069;52.242;20.900;2023-04-08T10:40:49;23.92;27.78
70676;DHT22;59069;52.242;20.900;2023-04-08T10:43:16;24.59;26.95
70676;DHT22;59069;52.242;20.900;2023-04-08T10:45:42;25.12;25.01
70676;DHT22;59069;52.242;20.900;2023-04-08T10:48:15;25.53;23.22
70676;DHT22;59069;52.242;20.900;2023-04-08T10:50:42;25.57;22.22
70676;DHT22;59069;52.242;20.900;2023-04-08T10:53:08;25.26;23.52
70676;DHT22;59069;52.242;20.900;2023-04-08T10:55:34;24.85;24.44
70676;DHT22;59069;52.242;20.900;2023-04-08T10:58:09;24.68;25.88
70676;DHT22;59069;52.242;20.900;2023-04-08T11:00:37;24.85;25.11
70676;DHT22;59069;52.242;20.900;2023-04-08T11:03:09;24.61;24.04
70676;DHT22;59069;52.242;20.900;2023-04-08T11:05:37;24.47;25.26
70676;DHT22;59069;52.242;20.900;2023-04-08T11:08:04;24.65;25.55
70676;DHT22;59069;52.242;20.900;2023-04-08T11:10:30;24.99;25.38
70676;DHT22;59069;52.242;20.900;2023-04-08T11:13:00;25.57;24.60
70676;DHT22;59069;52.242;20.900;2023-04-08T11:15:29;26.25;24.08
70676;DHT22;59069;52.242;20.900;2023-04-08T11:17:54;26.89;22.58
70676;DHT22;59069;52.242;20.900;2023-04-08T11:20:20;27.26;21.97
70676;DHT22;59069;52.242;20.900;2023-04-08T11:22:46;27.82;21.09
70676;DHT22;59069;52.242;20.900;2023-04-08T11:25:12;28.24;19.56
70676;DHT22;59069;52.242;20.900;2023-04-08T11:27:38;28.68;22.31
70676;DHT22;59069;52.242;20.900;2023-04-08T11:30:05;29.08;20.62
70676;DHT22;59069;52.242;20.900;2023-04-08T11:32:33;29.77;20.18
70676;DHT22;59069;52.242;20.900;2023-04-08T11:35:00;30.71;19.45
70676;DHT22;59069;52.242;20.900;2023-04-08T11:37:40;31.62;18.61
70676;DHT22;59069;52.242;20.900;2023-04-08T11:40:10;32.27;17.19
70676;DHT22;59069;52.242;20.900;2023-04-08T11:42:36;32.48;16.49
70676;DHT22;59069;52.242;20.900;2023-04-08T11:45:09;32.75;17.14
70676;DHT22;59069;52.242;20.900;2023-04-08T11:47:35;32.90;17.08
70676;DHT22;59069;52.242;20.900;2023-04-08T11:50:01;32.65;16.36
70676;DHT22;59069;52.242;20.900;2023-04-08T11:53:00;32.96;16.35
70676;DHT22;59069;52.242;20.900;2023-04-08T11:55:28;33.02;15.75
70676;DHT22;59069;52.242;20.900;2023-04-08T11:57:55;32.69;15.49
70676;DHT22;59069;52.242;20.900;2023-04-08T12:00:21;31.62;15.47
70676;DHT22;59069;52.242;20.900;2023-04-08T12:02:48;31.03;17.75
70676;DHT22;59069;52.242;20.900;2023-04-08T12:05:14;30.85;18.59
70676;DHT22;59069;52.242;20.900;2023-04-08T12:07:41;29.24;17.19
70676;DHT22;59069;52.242;20.900;2023-04-08T12:10:07;28.61;21.50
70676;DHT22;59069;52.242;20.900;2023-04-08T12:12:33;28.70;19.69
70676;DHT22;59069;52.242;20.900;2023-04-08T12:14:58;28.32;21.28
70676;DHT22;59069;52.242;20.900;2023-04-08T12:17:24;27.17;18.64
70676;DHT22;59069;52.242;20.900;2023-04-08T12:19:49;25.40;20.29
70676;DHT22;59069;52.242;20.900;2023-04-08T12:22:15;25.06;25.85
70676;DHT22;59069;52.242;20.900;2023-04-08T12:24:41;25.44;22.22
70676;DHT22;59069;52.242;20.900;2023-04-08T12:27:06;25.20;23.24
70676;DHT22;59069;52.242;20.900;2023-04-08T12:29:32;26.35;26.46
70676;DHT22;59069;52.242;20.900;2023-04-08T12:31:57;26.82;20.50
70676;DHT22;59069;52.242;20.900;2023-04-08T12:34:24;26.32;19.85
70676;DHT22;59069;52.242;20.900;2023-04-08T12:36:49;25.33;20.65
70676;DHT22;59069;52.242;20.900;2023-04-08T12:39:15;24.98;25.85
70676;DHT22;59069;52.242;20.900;2023-04-08T12:41:40;26.55;26.16
70676;DHT22;59069;52.242;20.900;2023-04-08T12:44:05;28.46;22.14
70676;DHT22;59069;52.242;20.900;2023-04-08T12:46:32;30.34;19.74
70676;DHT22;59069;52.242;20.900;2023-04-08T12:48:57;31.97;17.66
70676;DHT22;59069;52.242;20.900;2023-04-08T12:51:23;33.17;16.69
70676;DHT22;59069;52.242;20.900;2023-04-08T12:53:50;34.39;15.66
70676;DHT22;59069;52.242;20.900;2023-04-08T12:56:16;34.67;14.52
70676;DHT22;59069;52.242;20.900;2023-04-08T12:58:41;35.30;15.18
70676;DHT22;59069;52.242;20.900;2023-04-08T13:01:07;36.08;14.48
70676;DHT22;59069;52.242;20.900;2023-04-08T13:03:32;36.15;13.38
70676;DHT22;59069;52.242;20.900;2023-04-08T13:05:59;35.82;14.28
70676;DHT22;59069;52.242;20.900;2023-04-08T13:08:25;36.06;14.03
70676;DHT22;59069;52.242;20.900;2023-04-08T13:10:50;36.32;14.02
70676;DHT22;59069;52.242;20.900;2023-04-08T13:13:15;36.52;13.99
70676;DHT22;59069;52.242;20.900;2023-04-08T13:15:41;36.40;13.95
70676;DHT22;59069;52.242;20.900;2023-04-08T13:18:08;35.99;13.39
70676;DHT22;59069;52.242;20.900;2023-04-08T13:20:34;34.76;13.93
70676;DHT22;59069;52.242;20.900;2023-04-08T13:22:59;34.00;15.97
70676;DHT22;59069;52.242;20.900;2023-04-08T13:25:25;33.78;15.27
70676;DHT22;59069;52.242;20.900;2023-04-08T13:27:51;31.67;15.27
70676;DHT22;59069;52.242;20.900;2023-04-08T13:30:17;29.56;16.75
70676;DHT22;59069;52.242;20.900;2023-04-08T13:32:42;28.22;18.15
70676;DHT22;59069;52.242;20.900;2023-04-08T13:35:08;27.00;19.21
70676;DHT22;59069;52.242;20.900;2023-04-08T13:37:33;26.02;20.42
70676;DHT22;59069;52.242;20.900;2023-04-08T13:39:59;26.56;25.24
70676;DHT22;59069;52.242;20.900;2023-04-08T13:42:24;27.04;20.99
70676;DHT22;59069;52.242;20.900;2023-04-08T13:44:50;26.80;20.19
70676;DHT22;59069;52.242;20.900;2023-04-08T13:47:16;25.80;20.42
70676;DHT22;59069;52.242;20.900;2023-04-08T13:49:42;24.35;22.24
70676;DHT22;59069;52.242;20.900;2023-04-08T13:52:07;23.11;24.09
70676;DHT22;59069;52.242;20.900;2023-04-08T13:54:33;22.07;25.58
70676;DHT22;59069;52.242;20.900;2023-04-08T13:56:59;21.32;26.67
70676;DHT22;59069;52.242;20.900;2023-04-08T13:59:25;20.69;27.92
70676;DHT22;59069;52.242;20.900;2023-04-08T14:01:53;20.26;29.04
70676;DHT22;59069;52.242;20.900;2023-04-08T14:04:20;19.81;29.93
70676;DHT22;59069;52.242;20.900;2023-04-08T14:06:46;19.60;31.08
70676;DHT22;59069;52.242;20.900;2023-04-08T14:09:12;19.41;31.36
70676;DHT22;59069;52.242;20.900;2023-04-08T14:11:37;19.88;34.22
70676;DHT22;59069;52.242;20.900;2023-04-08T14:14:03;20.08;31.72
70676;DHT22;59069;52.242;20.900;2023-04-08T14:16:28;20.06;31.14
70676;DHT22;59069;52.242;20.900;2023-04-08T14:18:56;19.74;30.95
70676;DHT22;59069;52.242;20.900;2023-04-08T14:21:21;19.43;31.31
70676;DHT22;59069;52.242;20.900;2023-04-08T14:23:47;19.10;31.75
70676;DHT22;59069;52.242;20.900;2023-04-08T14:26:12;18.81;32.20
70676;DHT22;59069;52.242;20.900;2023-04-08T14:28:38;18.45;32.38
70676;DHT22;59069;52.242;20.900;2023-04-08T14:31:03;18.12;32.99
70676;DHT22;59069;52.242;20.900;2023-04-08T14:33:30;17.76;33.46
70676;DHT22;59069;52.242;20.900;2023-04-08T14:35:56;17.46;33.58
70676;DHT22;59069;52.242;20.900;2023-04-08T14:38:21;17.15;33.83
70676;DHT22;59069;52.242;20.900;2023-04-08T14:40:47;16.92;34.30
70676;DHT22;59069;52.242;20.900;2023-04-08T14:43:12;16.77;34.64
70676;DHT22;59069;52.242;20.900;2023-04-08T14:45:38;16.74;35.10
70676;DHT22;59069;52.242;20.900;2023-04-08T14:48:03;16.60;35.27
70676;DHT22;59069;52.242;20.900;2023-04-08T14:50:29;16.37;35.64
70676;DHT22;59069;52.242;20.900;2023-04-08T14:52:55;16.29;36.45
70676;DHT22;59069;52.242;20.900;2023-04-08T14:55:21;16.10;36.63
70676;DHT22;59069;52.242;20.900;2023-04-08T14:57:47;15.92;36.78
70676;DHT22;59069;52.242;20.900;2023-04-08T15:00:12;15.73;37.26
70676;DHT22;59069;52.242;20.900;2023-04-08T15:02:38;15.56;37.49
70676;DHT22;59069;52.242;20.900;2023-04-08T15:05:04;15.42;37.74
70676;DHT22;59069;52.242;20.900;2023-04-08T15:07:30;15.21;37.96
70676;DHT22;59069;52.242;20.900;2023-04-08T15:09:56;15.11;38.43
70676;DHT22;59069;52.242;20.900;2023-04-08T15:12:21;15.08;38.54
70676;DHT22;59069;52.242;20.900;2023-04-08T15:14:47;15.06;39.23
70676;DHT22;59069;52.242;20.900;2023-04-08T15:17:12;15.07;39.17
70676;DHT22;59069;52.242;20.900;2023-04-08T15:19:38;15.07;38.87
70676;DHT22;59069;52.242;20.900;2023-04-08T15:22:03;15.08;38.98
70676;DHT22;59069;52.242;20.900;2023-04-08T15:24:29;15.00;38.79
70676;DHT22;59069;52.242;20.900;2023-04-08T15:26:54;14.93;38.87
70676;DHT22;59069;52.242;20.900;2023-04-08T15:29:23;14.88;39.04
70676;DHT22;59069;52.242;20.900;2023-04-08T15:31:50;14.81;39.39
70676;DHT22;59069;52.242;20.900;2023-04-08T15:34:16;14.73;39.84
70676;DHT22;59069;52.242;20.900;2023-04-08T15:36:42;14.69;40.29